createdAt,value
2022-08-07T00:00:29.954Z,20.50
2022-08-07T00:01:44.471Z,20.44
2022-08-07T00:02:44.156Z,20.53
2022-08-07T00:03:47.358Z,20.50
2022-08-07T00:04:45.368Z,20.41
2022-08-07T00:05:48.156Z,20.35
2022-08-07T00:06:52.421Z,20.38
2022-08-07T00:07:59.729Z,20.45
2022-08-07T00:08:59.627Z,20.42
2022-08-07T00:10:25.653Z,20.36
2022-08-07T00:11:09.244Z,20.52
2022-08-07T00:12:15.250Z,20.56
2022-08-07T00:13:24.019Z,20.59
2022-08-07T00:14:25.339Z,20.55
2022-08-07T00:15:38.170Z,20.58
2022-08-07T00:16:36.970Z,20.57
2022-08-07T00:17:41.280Z,20.60
2022-08-07T00:18:43.664Z,20.44
2022-08-07T00:20:01.577Z,20.63
2022-08-07T00:22:05.717Z,20.71
2022-08-07T00:23:09.237Z,20.69
2022-08-07T00:24:12.110Z,20.71
2022-08-07T00:25:16.587Z,20.65
2022-08-07T00:26:48.668Z,20.71
2022-08-07T00:27:23.274Z,20.70
2022-08-07T00:28:33.288Z,20.59
2022-08-07T00:29:33.826Z,20.54
2022-08-07T00:30:38.163Z,20.48
2022-08-07T00:31:41.502Z,20.34
2022-08-07T00:32:47.151Z,20.35
2022-08-07T00:33:49.603Z,20.26
2022-08-07T00:34:52.122Z,20.26
2022-08-07T00:35:56.032Z,20.25
2022-08-07T00:36:58.714Z,20.16
2022-08-07T00:38:01.900Z,20.08
2022-08-07T00:39:04.241Z,20.13
2022-08-07T00:40:07.671Z,20.12
2022-08-07T00:41:14.729Z,20.12
2022-08-07T00:42:17.451Z,20.13
2022-08-07T00:44:01.991Z,20.10
2022-08-07T00:44:24.491Z,19.88
2022-08-07T00:45:28.762Z,19.98
2022-08-07T00:46:34.204Z,19.99
2022-08-07T00:48:10.301Z,20.00
2022-08-07T00:48:42.416Z,20.02
2022-08-07T00:50:21.093Z,20.06
2022-08-07T00:50:51.577Z,20.08
2022-08-07T00:51:57.019Z,20.10
2022-08-07T00:52:57.629Z,20.09
2022-08-07T00:53:59.985Z,20.09
2022-08-07T00:55:04.605Z,20.06
2022-08-07T00:56:13.818Z,20.00
2022-08-07T00:57:12.505Z,19.81
2022-08-07T00:58:14.859Z,19.90
2022-08-07T00:59:35.595Z,19.86
2022-08-07T01:00:25.160Z,19.87
2022-08-07T01:01:28.009Z,19.92
2022-08-07T01:02:30.729Z,19.93
2022-08-07T01:03:57.202Z,19.92
2022-08-07T01:04:43.490Z,19.97
2022-08-07T01:05:51.693Z,19.98
2022-08-07T01:06:49.724Z,19.96
2022-08-07T01:07:52.342Z,19.95
2022-08-07T01:08:55.645Z,19.97
2022-08-07T01:10:05.935Z,20.01
2022-08-07T01:11:23.666Z,20.01
2022-08-07T01:12:28.680Z,19.94
2022-08-07T01:13:12.000Z,19.94
2022-08-07T01:14:16.736Z,19.97
2022-08-07T01:15:19.792Z,20.00
2022-08-07T01:16:30.333Z,20.06
2022-08-07T01:17:27.936Z,20.08
2022-08-07T01:18:31.385Z,20.01
2022-08-07T01:19:34.751Z,19.99
2022-08-07T01:20:43.286Z,20.01
2022-08-07T01:21:48.814Z,19.97
2022-08-07T01:23:00.459Z,19.97
2022-08-07T01:23:57.009Z,19.93
2022-08-07T01:25:00.311Z,19.90
2022-08-07T01:26:05.867Z,19.86
2022-08-07T01:27:19.858Z,19.89
2022-08-07T01:28:13.635Z,19.84
2022-08-07T01:29:15.978Z,19.82
2022-08-07T01:30:19.282Z,19.81
2022-08-07T01:31:21.939Z,19.80
2022-08-07T01:32:25.335Z,19.57
2022-08-07T01:33:30.120Z,19.57
2022-08-07T01:34:34.412Z,19.53
2022-08-07T01:35:52.770Z,19.57
2022-08-07T01:36:41.050Z,19.62
2022-08-07T01:37:45.369Z,19.70
2022-08-07T01:38:47.969Z,19.71
2022-08-07T01:39:50.440Z,19.69
2022-08-07T01:40:56.348Z,19.71
2022-08-07T01:42:36.931Z,19.73
2022-08-07T01:43:03.348Z,19.76
2022-08-07T01:44:06.374Z,19.68
2022-08-07T01:45:17.740Z,19.70
2022-08-07T01:46:16.603Z,19.70
2022-08-07T01:48:17.647Z,19.80
2022-08-07T01:48:30.140Z,19.61
2022-08-07T01:49:32.009Z,19.63
2022-08-07T01:52:04.299Z,19.50
2022-08-07T01:52:55.222Z,19.25
2022-08-07T01:54:09.999Z,19.23
2022-08-07T01:55:06.586Z,19.26
2022-08-07T01:56:12.877Z,19.26
2022-08-07T01:57:24.981Z,19.42
2022-08-07T01:58:33.120Z,19.47
2022-08-07T01:59:48.520Z,19.51
2022-08-07T02:00:57.965Z,19.54
2022-08-07T02:02:04.453Z,19.52
2022-08-07T02:03:21.406Z,19.55
2022-08-07T02:04:30.339Z,19.56
2022-08-07T02:05:47.697Z,19.41
2022-08-07T02:06:46.749Z,19.41
2022-08-07T02:07:52.929Z,19.46
2022-08-07T02:08:58.161Z,19.44
2022-08-07T02:10:01.639Z,19.47
2022-08-07T02:11:04.635Z,19.19
2022-08-07T02:12:10.293Z,19.21
2022-08-07T02:13:16.769Z,19.26
2022-08-07T02:14:36.056Z,19.40
2022-08-07T02:15:28.459Z,19.47
2022-08-07T02:16:33.639Z,19.40
2022-08-07T02:17:37.835Z,19.50
2022-08-07T02:18:47.084Z,19.54
2022-08-07T02:20:06.880Z,19.56
2022-08-07T02:20:55.870Z,19.54
2022-08-07T02:22:01.140Z,19.55
2022-08-07T02:23:06.955Z,19.62
2022-08-07T02:24:10.441Z,19.34
2022-08-07T02:25:18.356Z,19.46
2022-08-07T02:26:32.698Z,19.26
2022-08-07T02:27:34.263Z,19.39
2022-08-07T02:28:35.865Z,19.43
2022-08-07T02:29:48.710Z,19.48
2022-08-07T02:30:45.836Z,19.46
2022-08-07T02:31:50.976Z,19.43
2022-08-07T02:33:03.982Z,19.47
2022-08-07T02:34:11.323Z,19.46
2022-08-07T02:35:10.831Z,19.47
2022-08-07T02:36:28.478Z,19.45
2022-08-07T02:37:21.618Z,19.48
2022-08-07T02:38:28.104Z,19.51
2022-08-07T02:39:42.889Z,19.53
2022-08-07T02:40:38.147Z,19.31
2022-08-07T02:41:41.004Z,19.42
2022-08-07T02:42:46.260Z,19.40
2022-08-07T02:43:49.538Z,19.28
2022-08-07T02:44:53.085Z,19.41
2022-08-07T02:46:01.789Z,19.37
2022-08-07T02:47:03.538Z,19.52
2022-08-07T02:48:10.048Z,19.56
2022-08-07T02:49:10.408Z,19.67
2022-08-07T02:50:15.825Z,19.47
2022-08-07T02:51:41.959Z,19.31
2022-08-07T02:52:37.580Z,19.24
2022-08-07T02:53:44.650Z,19.47
2022-08-07T02:54:49.963Z,19.51
2022-08-07T02:56:04.225Z,19.53
2022-08-07T02:57:02.939Z,19.50
2022-08-07T02:58:13.170Z,19.47
2022-08-07T02:59:18.514Z,19.47
2022-08-07T03:00:23.641Z,19.43
2022-08-07T03:01:36.106Z,19.43
2022-08-07T03:02:33.409Z,19.41
2022-08-07T03:03:48.967Z,19.47
2022-08-07T03:04:45.693Z,19.47
2022-08-07T03:05:50.782Z,19.40
2022-08-07T03:06:56.252Z,19.46
2022-08-07T03:08:05.272Z,19.48
2022-08-07T03:09:05.376Z,19.46
2022-08-07T03:10:09.572Z,19.42
2022-08-07T03:11:12.202Z,19.46
2022-08-07T03:12:22.617Z,19.29
2022-08-07T03:13:20.862Z,19.45
2022-08-07T03:14:23.954Z,19.36
2022-08-07T03:15:54.099Z,19.26
2022-08-07T03:16:35.284Z,19.47
2022-08-07T03:17:53.426Z,19.47
2022-08-07T03:18:44.117Z,19.52
2022-08-07T03:19:54.609Z,19.29
2022-08-07T03:20:52.438Z,19.43
2022-08-07T03:21:56.457Z,19.31
2022-08-07T03:23:00.702Z,19.34
2022-08-07T03:24:19.790Z,19.47
2022-08-07T03:25:10.433Z,19.50
2022-08-07T03:26:23.392Z,19.59
2022-08-07T03:27:30.815Z,19.60
2022-08-07T03:28:37.032Z,19.60
2022-08-07T03:29:37.732Z,19.68
2022-08-07T03:30:41.979Z,19.66
2022-08-07T03:31:46.356Z,19.69
2022-08-07T03:32:59.312Z,19.70
2022-08-07T03:34:00.710Z,19.74
2022-08-07T03:35:18.113Z,19.74
2022-08-07T03:36:12.200Z,19.77
2022-08-07T03:37:17.747Z,19.73
2022-08-07T03:38:29.592Z,19.74
2022-08-07T03:39:46.366Z,19.76
2022-08-07T03:40:36.319Z,19.80
2022-08-07T03:41:42.232Z,19.81
2022-08-07T03:42:42.573Z,19.82
2022-08-07T03:43:57.251Z,19.88
2022-08-07T03:44:53.496Z,19.87
2022-08-07T03:45:56.314Z,19.91
2022-08-07T03:47:11.202Z,19.93
2022-08-07T03:48:04.632Z,19.97
2022-08-07T03:49:09.655Z,19.99
2022-08-07T03:50:15.335Z,20.06
2022-08-07T03:51:22.362Z,20.07
2022-08-07T03:52:28.030Z,20.14
2022-08-07T03:54:05.419Z,20.18
2022-08-07T03:54:54.320Z,20.19
2022-08-07T03:55:57.835Z,20.18
2022-08-07T03:57:03.523Z,20.21
2022-08-07T03:58:34.045Z,20.28
2022-08-07T03:59:09.436Z,20.29
2022-08-07T04:00:02.523Z,20.26
2022-08-07T04:01:11.231Z,20.33
2022-08-07T04:02:13.201Z,20.33
2022-08-07T04:03:17.833Z,20.42
2022-08-07T04:04:21.225Z,20.46
2022-08-07T04:05:39.865Z,20.48
2022-08-07T04:06:37.500Z,20.50
2022-08-07T04:07:41.693Z,20.37
2022-08-07T04:08:41.115Z,20.35
2022-08-07T04:09:50.229Z,20.28
2022-08-07T04:12:15.599Z,20.36
2022-08-07T04:12:27.547Z,20.37
2022-08-07T04:13:04.658Z,20.42
2022-08-07T04:14:09.873Z,20.38
2022-08-07T04:15:13.105Z,20.45
2022-08-07T04:16:30.091Z,20.42
2022-08-07T04:17:22.031Z,20.52
2022-08-07T04:18:57.825Z,20.56
2022-08-07T04:19:51.009Z,20.60
2022-08-07T04:20:35.130Z,20.67
2022-08-07T04:21:38.250Z,20.72
2022-08-07T04:22:53.607Z,20.82
2022-08-07T04:24:01.944Z,20.92
2022-08-07T04:24:52.812Z,20.99
2022-08-07T04:25:56.921Z,20.96
2022-08-07T04:27:00.192Z,21.14
2022-08-07T04:28:05.839Z,21.17
2022-08-07T04:29:11.045Z,21.26
2022-08-07T04:30:21.297Z,21.32
2022-08-07T04:31:38.796Z,21.33
2022-08-07T04:32:27.239Z,21.47
2022-08-07T04:33:31.463Z,21.52
2022-08-07T04:34:36.587Z,21.63
2022-08-07T04:35:41.005Z,21.63
2022-08-07T04:36:44.085Z,21.80
2022-08-07T04:38:02.769Z,21.96
2022-08-07T04:38:52.395Z,22.07
2022-08-07T04:39:55.714Z,22.11
2022-08-07T04:41:00.190Z,22.18
2022-08-07T04:42:03.875Z,22.18
2022-08-07T04:43:06.446Z,22.39
2022-08-07T04:44:12.929Z,22.39
2022-08-07T04:45:17.727Z,22.52
2022-08-07T04:46:34.228Z,22.60
2022-08-07T04:49:14.877Z,23.03
2022-08-07T04:50:17.345Z,23.03
2022-08-07T04:51:27.281Z,23.20
2022-08-07T04:52:46.740Z,23.33
2022-08-07T04:54:06.680Z,23.47
2022-08-07T04:55:15.354Z,23.59
2022-08-07T04:58:16.823Z,23.72
2022-08-07T05:00:11.430Z,24.28
2022-08-07T05:00:45.843Z,24.32
2022-08-07T05:01:55.613Z,24.24
2022-08-07T05:03:38.842Z,24.53
2022-08-07T05:04:43.904Z,24.76
2022-08-07T05:06:19.363Z,24.76
2022-08-07T05:07:21.135Z,25.03
2022-08-07T05:08:59.503Z,24.86
2022-08-07T05:09:45.575Z,24.77
2022-08-07T05:10:58.416Z,25.04
2022-08-07T05:12:02.496Z,25.12
2022-08-07T05:14:52.590Z,25.05
2022-08-07T05:14:53.407Z,25.17
2022-08-07T05:15:41.653Z,25.39
2022-08-07T05:16:46.611Z,25.33
2022-08-07T05:17:57.435Z,25.32
2022-08-07T05:20:19.606Z,25.78
2022-08-07T05:21:59.864Z,25.74
2022-08-07T05:22:32.829Z,26.08
2022-08-07T05:23:43.656Z,26.20
2022-08-07T05:24:50.404Z,26.08
2022-08-07T05:26:13.448Z,26.29
2022-08-07T05:26:59.989Z,26.10
2022-08-07T05:28:20.776Z,26.53
2022-08-07T05:29:12.793Z,26.48
2022-08-07T05:30:21.175Z,26.16
2022-08-07T05:31:25.021Z,26.68
2022-08-07T05:32:31.055Z,26.81
2022-08-07T05:33:36.858Z,26.96
2022-08-07T05:34:41.220Z,27.01
2022-08-07T05:35:45.320Z,27.21
2022-08-07T05:36:52.963Z,26.87
2022-08-07T05:38:08.581Z,26.64
2022-08-07T05:40:05.509Z,27.03
2022-08-07T05:40:17.801Z,26.86
2022-08-07T05:41:17.002Z,27.03
2022-08-07T05:42:33.393Z,27.24
2022-08-07T05:43:49.905Z,27.55
2022-08-07T05:44:29.887Z,27.69
2022-08-07T05:45:47.731Z,27.52
2022-08-07T05:46:38.039Z,27.51
2022-08-07T05:48:01.407Z,27.51
2022-08-07T05:48:57.986Z,27.55
2022-08-07T05:49:51.632Z,27.80
2022-08-07T05:50:55.613Z,28.26
2022-08-07T05:51:57.951Z,28.38
2022-08-07T05:53:01.630Z,28.24
2022-08-07T05:54:12.677Z,28.24
2022-08-07T05:55:10.857Z,27.85
2022-08-07T05:56:16.170Z,28.30
2022-08-07T05:57:20.337Z,28.22
2022-08-07T05:58:36.929Z,28.45
2022-08-07T05:59:56.047Z,28.55
2022-08-07T06:00:38.404Z,28.74
2022-08-07T06:01:44.534Z,28.87
2022-08-07T06:02:51.017Z,28.86
2022-08-07T06:03:58.988Z,28.80
2022-08-07T06:05:08.097Z,28.97
2022-08-07T06:06:12.705Z,29.02
2022-08-07T06:07:22.698Z,28.95
2022-08-07T06:08:30.951Z,29.10
2022-08-07T06:09:45.083Z,29.40
2022-08-07T06:10:31.270Z,29.48
2022-08-07T06:11:34.522Z,29.58
2022-08-07T06:12:36.938Z,29.54
2022-08-07T06:14:12.888Z,29.61
2022-08-07T06:14:49.532Z,29.74
2022-08-07T06:15:51.764Z,29.45
2022-08-07T06:16:56.024Z,29.63
2022-08-07T06:17:58.965Z,29.40
2022-08-07T06:19:03.170Z,29.67
2022-08-07T06:20:12.265Z,29.52
2022-08-07T06:22:16.874Z,29.60
2022-08-07T06:22:24.046Z,29.59
2022-08-07T06:24:37.478Z,29.69
2022-08-07T06:24:38.625Z,29.39
2022-08-07T06:25:36.112Z,30.01
2022-08-07T06:26:40.272Z,29.73
2022-08-07T06:28:01.004Z,29.27
2022-08-07T06:30:05.195Z,29.51
2022-08-07T06:31:09.162Z,29.31
2022-08-07T06:32:13.332Z,29.34
2022-08-07T06:33:16.650Z,29.74
2022-08-07T06:34:19.526Z,29.78
2022-08-07T06:35:23.026Z,29.41
2022-08-07T06:36:27.471Z,29.63
2022-08-07T06:37:43.407Z,29.71
2022-08-07T06:38:35.869Z,29.98
2022-08-07T06:40:17.844Z,29.97
2022-08-07T06:40:48.991Z,30.17
2022-08-07T06:42:03.800Z,30.20
2022-08-07T06:43:21.062Z,30.26
2022-08-07T06:44:16.321Z,29.89
2022-08-07T06:45:22.124Z,30.05
2022-08-07T06:46:35.031Z,30.30
2022-08-07T06:47:48.257Z,30.37
2022-08-07T06:48:35.352Z,29.88
2022-08-07T06:49:51.470Z,29.75
2022-08-07T06:50:47.814Z,30.17
2022-08-07T06:51:50.245Z,30.22
2022-08-07T06:52:55.773Z,30.50
2022-08-07T06:55:29.297Z,30.28
2022-08-07T06:55:31.568Z,30.37
2022-08-07T06:56:15.028Z,29.95
2022-08-07T06:57:20.377Z,30.00
2022-08-07T06:58:27.666Z,29.88
2022-08-07T07:00:13.789Z,30.15
2022-08-07T07:00:42.331Z,29.88
2022-08-07T07:01:48.893Z,30.17
2022-08-07T07:02:54.132Z,30.19
2022-08-07T07:04:05.373Z,30.31
2022-08-07T07:05:01.187Z,30.52
2022-08-07T07:06:06.238Z,30.87
2022-08-07T07:07:10.801Z,31.08
2022-08-07T07:08:18.635Z,31.43
2022-08-07T07:09:23.517Z,31.59
2022-08-07T07:10:28.902Z,31.45
2022-08-07T07:12:09.067Z,31.23
2022-08-07T07:14:03.376Z,30.29
2022-08-07T07:15:24.182Z,30.49
2022-08-07T07:16:27.257Z,29.99
2022-08-07T07:17:39.056Z,30.16
2022-08-07T07:18:51.457Z,30.13
2022-08-07T07:19:59.687Z,29.97
2022-08-07T07:21:13.689Z,30.22
2022-08-07T07:22:36.380Z,30.19
2022-08-07T07:24:10.845Z,30.20
2022-08-07T07:24:27.033Z,30.36
2022-08-07T07:26:33.530Z,30.50
2022-08-07T07:26:37.998Z,30.54
2022-08-07T07:27:55.747Z,30.43
2022-08-07T07:29:39.984Z,30.35
2022-08-07T07:30:09.699Z,30.36
2022-08-07T07:31:24.882Z,30.28
2022-08-07T07:32:32.175Z,30.19
2022-08-07T07:33:37.642Z,30.54
2022-08-07T07:34:44.242Z,30.60
2022-08-07T07:36:05.373Z,30.53
2022-08-07T07:36:57.920Z,30.33
2022-08-07T07:38:04.859Z,30.72
2022-08-07T07:39:09.363Z,30.25
2022-08-07T07:40:16.272Z,30.45
2022-08-07T07:41:22.138Z,30.20
2022-08-07T07:42:33.079Z,30.64
2022-08-07T07:43:47.923Z,30.79
2022-08-07T07:44:40.962Z,30.86
2022-08-07T07:46:36.691Z,30.75
2022-08-07T07:46:55.678Z,30.65
2022-08-07T07:47:59.119Z,30.35
2022-08-07T07:50:31.356Z,30.32
2022-08-07T07:50:35.160Z,30.69
2022-08-07T07:51:15.443Z,30.84
2022-08-07T07:52:20.167Z,30.90
2022-08-07T07:53:25.707Z,31.15
2022-08-07T07:54:30.222Z,31.26
2022-08-07T07:55:37.297Z,30.63
2022-08-07T07:56:40.739Z,30.69
2022-08-07T07:57:52.897Z,30.50
2022-08-07T07:58:50.661Z,30.30
2022-08-07T07:59:54.742Z,30.85
2022-08-07T08:00:58.970Z,30.87
2022-08-07T08:02:10.237Z,30.83
2022-08-07T08:03:16.658Z,31.37
2022-08-07T08:04:17.938Z,31.72
2022-08-07T08:05:22.358Z,31.79
2022-08-07T08:06:28.111Z,32.16
2022-08-07T08:07:33.156Z,32.14
2022-08-07T08:08:39.392Z,32.44
2022-08-07T08:09:52.141Z,32.52
2022-08-07T08:10:47.951Z,32.59
2022-08-07T08:12:02.838Z,32.76
2022-08-07T08:12:59.734Z,32.83
2022-08-07T08:14:02.213Z,32.64
2022-08-07T08:15:06.910Z,32.70
2022-08-07T08:16:13.673Z,32.65
2022-08-07T08:17:57.375Z,32.70
2022-08-07T08:18:26.994Z,32.70
2022-08-07T08:20:17.644Z,32.56
2022-08-07T08:20:39.804Z,31.79
2022-08-07T08:22:00.712Z,30.87
2022-08-07T08:22:56.395Z,30.83
2022-08-07T08:24:02.145Z,31.14
2022-08-07T08:25:24.737Z,30.89
2022-08-07T08:26:16.204Z,30.77
2022-08-07T08:27:21.422Z,30.58
2022-08-07T08:28:37.390Z,30.95
2022-08-07T08:29:34.753Z,31.02
2022-08-07T08:30:42.876Z,31.02
2022-08-07T08:31:58.769Z,31.43
2022-08-07T08:32:52.901Z,31.62
2022-08-07T08:33:57.980Z,31.64
2022-08-07T08:35:01.720Z,31.74
2022-08-07T08:36:09.273Z,31.78
2022-08-07T08:37:59.734Z,31.89
2022-08-07T08:38:21.092Z,32.13
2022-08-07T08:39:39.867Z,32.42
2022-08-07T08:40:50.590Z,32.66
2022-08-07T08:43:42.789Z,33.04
2022-08-07T08:45:06.850Z,33.12
2022-08-07T08:46:21.963Z,33.24
2022-08-07T08:47:52.907Z,33.30
2022-08-07T08:48:57.269Z,32.25
2022-08-07T08:50:28.167Z,31.69
2022-08-07T08:52:12.993Z,31.27
2022-08-07T08:52:53.806Z,31.52
2022-08-07T08:54:00.002Z,31.19
2022-08-07T08:55:07.689Z,30.97
2022-08-07T08:56:14.128Z,30.73
2022-08-07T08:57:34.183Z,30.45
2022-08-07T08:58:41.435Z,30.29
2022-08-07T08:59:59.062Z,29.93
2022-08-07T09:01:15.740Z,29.80
2022-08-07T09:02:17.159Z,29.65
2022-08-07T09:03:47.341Z,29.80
2022-08-07T09:04:56.240Z,29.70
2022-08-07T09:06:11.431Z,29.76
2022-08-07T09:07:46.210Z,29.71
2022-08-07T09:08:54.189Z,29.49
2022-08-07T09:10:09.057Z,29.19
2022-08-07T09:11:24.278Z,28.15
2022-08-07T09:12:40.695Z,27.92
2022-08-07T09:14:03.394Z,27.36
2022-08-07T09:16:22.882Z,27.70
2022-08-07T09:16:48.642Z,27.28
2022-08-07T09:18:09.952Z,27.15
2022-08-07T09:19:50.900Z,26.54
2022-08-07T09:20:35.537Z,25.47
2022-08-07T09:24:28.044Z,25.57
2022-08-07T09:24:30.560Z,25.74
2022-08-07T09:24:32.872Z,25.38
2022-08-07T09:25:40.626Z,24.54
2022-08-07T09:26:51.057Z,24.68
2022-08-07T09:29:22.279Z,25.19
2022-08-07T09:30:05.933Z,25.26
2022-08-07T09:30:46.409Z,25.19
2022-08-07T09:32:05.497Z,25.06
2022-08-07T09:33:52.469Z,25.15
2022-08-07T09:34:37.801Z,25.23
2022-08-07T09:36:01.006Z,25.20
2022-08-07T09:37:03.131Z,25.24
2022-08-07T09:38:10.473Z,25.16
2022-08-07T09:39:55.369Z,25.22
2022-08-07T09:40:33.757Z,25.16
2022-08-07T09:41:59.000Z,25.27
2022-08-07T09:44:32.667Z,25.38
2022-08-07T09:47:23.774Z,25.40
2022-08-07T09:47:42.417Z,25.93
2022-08-07T09:48:43.940Z,26.22
2022-08-07T09:50:01.531Z,26.51
2022-08-07T09:51:14.782Z,26.87
2022-08-07T09:52:34.643Z,27.12
2022-08-07T09:53:41.117Z,26.82
2022-08-07T09:54:50.900Z,26.92
2022-08-07T09:56:34.113Z,26.79
2022-08-07T09:58:03.621Z,26.62
2022-08-07T09:59:14.554Z,26.92
2022-08-07T10:00:20.664Z,26.67
2022-08-07T10:01:51.740Z,26.65
2022-08-07T10:02:55.084Z,26.52
2022-08-07T10:04:28.381Z,26.50
2022-08-07T10:06:11.995Z,26.53
2022-08-07T10:07:31.586Z,26.57
2022-08-07T10:08:40.152Z,26.69
2022-08-07T10:10:03.190Z,26.74
2022-08-07T10:12:00.969Z,26.60
2022-08-07T10:12:54.040Z,25.92
2022-08-07T10:14:31.343Z,25.37
2022-08-07T10:15:48.025Z,24.63
2022-08-07T10:17:00.900Z,24.40
2022-08-07T10:18:26.594Z,24.12
2022-08-07T10:20:00.803Z,23.94
2022-08-07T10:22:14.307Z,24.16
2022-08-07T10:24:10.074Z,24.44
2022-08-07T10:25:42.596Z,24.54
2022-08-07T10:27:02.639Z,24.81
2022-08-07T10:28:37.928Z,24.70
2022-08-07T10:30:13.148Z,24.96
2022-08-07T10:31:31.481Z,25.13
2022-08-07T10:33:02.073Z,25.20
2022-08-07T10:34:42.454Z,25.48
2022-08-07T10:36:11.017Z,25.74
2022-08-07T10:37:16.573Z,25.88
2022-08-07T10:38:48.882Z,25.98
2022-08-07T10:40:05.993Z,26.02
2022-08-07T10:41:51.815Z,25.55
2022-08-07T10:43:10.582Z,25.15
2022-08-07T10:44:38.519Z,25.17
2022-08-07T10:45:57.794Z,25.05
2022-08-07T10:46:54.937Z,25.12
2022-08-07T10:48:24.132Z,25.31
2022-08-07T10:49:51.015Z,25.43
2022-08-07T10:51:01.466Z,25.47
2022-08-07T10:52:31.944Z,25.25
2022-08-07T10:54:00.218Z,25.51
2022-08-07T10:55:37.157Z,24.95
2022-08-07T10:56:42.248Z,25.16
2022-08-07T10:57:56.177Z,25.27
2022-08-07T10:59:21.653Z,25.47
2022-08-07T11:00:36.921Z,25.25
2022-08-07T11:01:35.496Z,25.04
2022-08-07T11:02:49.038Z,25.08
2022-08-07T11:04:31.596Z,25.14
2022-08-07T11:05:44.857Z,25.52
2022-08-07T11:06:51.812Z,25.75
2022-08-07T11:08:17.182Z,25.73
2022-08-07T11:10:08.403Z,25.89
2022-08-07T11:11:02.504Z,26.04
2022-08-07T11:12:19.162Z,26.04
2022-08-07T11:14:44.578Z,26.14
2022-08-07T11:14:57.381Z,26.16
2022-08-07T11:15:41.919Z,26.19
2022-08-07T11:18:20.838Z,26.24
2022-08-07T11:19:37.730Z,26.17
2022-08-07T11:20:45.542Z,26.35
2022-08-07T11:22:33.264Z,26.46
2022-08-07T11:23:36.461Z,26.48
2022-08-07T11:25:06.463Z,26.35
2022-08-07T11:26:15.852Z,26.10
2022-08-07T11:27:33.753Z,26.43
2022-08-07T11:28:55.226Z,26.57
2022-08-07T11:30:17.650Z,26.51
2022-08-07T11:31:21.218Z,26.42
2022-08-07T11:32:31.976Z,26.48
2022-08-07T11:34:00.261Z,26.54
2022-08-07T11:36:44.941Z,26.64
2022-08-07T11:38:09.948Z,26.54
2022-08-07T11:39:04.859Z,26.52
2022-08-07T11:40:30.274Z,26.54
2022-08-07T11:42:02.076Z,26.56
2022-08-07T11:43:05.291Z,26.48
2022-08-07T11:44:18.624Z,25.95
2022-08-07T11:45:35.466Z,25.51
2022-08-07T11:46:55.840Z,25.85
2022-08-07T11:48:18.008Z,25.48
2022-08-07T11:49:50.855Z,25.55
2022-08-07T11:50:44.517Z,25.43
2022-08-07T11:52:12.057Z,25.59
2022-08-07T11:53:43.293Z,25.68
2022-08-07T11:54:57.337Z,25.52
2022-08-07T11:56:38.985Z,25.65
2022-08-07T11:58:00.092Z,25.65
2022-08-07T12:00:09.999Z,25.85
2022-08-07T12:01:02.612Z,25.88
2022-08-07T12:02:17.589Z,25.96
2022-08-07T12:03:44.497Z,25.99
2022-08-07T12:04:50.800Z,25.98
2022-08-07T12:06:38.882Z,25.98
2022-08-07T12:09:11.562Z,25.71
2022-08-07T12:10:18.974Z,25.63
2022-08-07T12:11:32.406Z,25.74
2022-08-07T12:12:45.977Z,25.77
2022-08-07T12:14:04.662Z,25.69
2022-08-07T12:15:46.736Z,25.57
2022-08-07T12:16:29.954Z,25.41
2022-08-07T12:17:59.495Z,25.36
2022-08-07T12:19:21.805Z,25.40
2022-08-07T12:20:36.687Z,25.42
2022-08-07T12:21:55.769Z,25.37
2022-08-07T12:23:09.196Z,25.33
2022-08-07T12:24:37.533Z,25.05
2022-08-07T12:26:03.423Z,25.17
2022-08-07T12:28:11.178Z,25.36
2022-08-07T12:29:37.862Z,25.18
2022-08-07T12:30:37.633Z,25.15
2022-08-07T12:32:01.575Z,25.20
2022-08-07T12:32:59.176Z,25.19
2022-08-07T12:34:04.061Z,25.11
2022-08-07T12:35:10.356Z,25.07
2022-08-07T12:36:15.833Z,24.94
2022-08-07T12:37:23.465Z,24.78
2022-08-07T12:38:29.441Z,24.63
2022-08-07T12:39:44.388Z,24.59
2022-08-07T12:40:46.746Z,24.67
2022-08-07T12:41:51.447Z,24.42
2022-08-07T12:42:55.163Z,24.18
2022-08-07T12:44:03.823Z,24.08
2022-08-07T12:45:14.219Z,23.73
2022-08-07T12:46:32.418Z,23.71
2022-08-07T12:47:37.743Z,23.62
2022-08-07T12:48:51.979Z,23.96
2022-08-07T12:50:39.104Z,24.02
2022-08-07T12:51:18.827Z,24.18
2022-08-07T12:52:33.998Z,24.20
2022-08-07T12:54:24.189Z,24.26
2022-08-07T12:55:24.918Z,24.36
2022-08-07T12:56:39.360Z,24.16
2022-08-07T12:58:00.646Z,24.29
2022-08-07T12:58:53.147Z,24.22
2022-08-07T12:59:56.599Z,24.21
2022-08-07T13:01:06.151Z,23.93
2022-08-07T13:02:17.970Z,24.11
2022-08-07T13:06:03.216Z,24.14
2022-08-07T13:06:33.114Z,24.05
2022-08-07T13:08:12.946Z,24.13
2022-08-07T13:10:51.629Z,24.02
2022-08-07T13:12:03.442Z,23.73
2022-08-07T13:13:48.062Z,23.80
2022-08-07T13:14:51.720Z,23.37
2022-08-07T13:16:16.454Z,23.60
2022-08-07T13:17:48.141Z,23.38
2022-08-07T13:18:56.931Z,23.44
2022-08-07T13:20:07.590Z,23.05
2022-08-07T13:21:50.098Z,23.40
2022-08-07T13:22:53.178Z,23.40
2022-08-07T13:24:17.649Z,23.23
2022-08-07T13:25:32.201Z,23.35
2022-08-07T13:27:09.287Z,23.43
2022-08-07T13:28:18.615Z,23.50
2022-08-07T13:29:28.390Z,23.53
2022-08-07T13:30:41.256Z,23.53
2022-08-07T13:32:00.091Z,23.46
2022-08-07T13:34:29.807Z,22.97
2022-08-07T13:34:35.775Z,22.73
2022-08-07T13:36:00.626Z,22.90
2022-08-07T13:37:00.558Z,22.45
2022-08-07T13:38:32.671Z,22.44
2022-08-07T13:40:36.155Z,22.48
2022-08-07T13:41:05.662Z,22.56
2022-08-07T13:42:11.781Z,22.41
2022-08-07T13:43:16.243Z,22.36
2022-08-07T13:46:10.432Z,22.35
2022-08-07T13:46:49.579Z,22.12
2022-08-07T13:48:06.556Z,22.17
2022-08-07T13:48:59.562Z,22.15
2022-08-07T13:50:35.896Z,22.05
2022-08-07T13:51:26.811Z,21.87
2022-08-07T13:52:30.649Z,21.88
2022-08-07T13:54:03.752Z,21.88
2022-08-07T13:55:13.230Z,21.80
2022-08-07T13:56:36.274Z,21.78
2022-08-07T13:57:38.172Z,21.89
2022-08-07T13:58:38.610Z,21.81
2022-08-07T14:00:26.629Z,21.78
2022-08-07T14:06:11.137Z,21.70
2022-08-07T14:07:14.414Z,21.66
2022-08-07T14:08:20.336Z,21.40
2022-08-07T14:10:02.274Z,21.14
2022-08-07T14:10:42.415Z,21.33
2022-08-07T14:12:01.068Z,21.22
2022-08-07T14:13:05.148Z,21.14
2022-08-07T14:14:11.316Z,21.17
2022-08-07T14:15:36.024Z,21.16
2022-08-07T14:16:41.522Z,21.16
2022-08-07T14:18:15.963Z,21.15
2022-08-07T14:18:56.847Z,21.01
2022-08-07T14:20:41.161Z,20.99
2022-08-07T14:22:01.830Z,21.15
2022-08-07T14:22:34.318Z,21.21
2022-08-07T14:24:00.723Z,20.94
2022-08-07T14:24:43.410Z,20.97
2022-08-07T14:25:49.035Z,20.82
2022-08-07T14:27:01.455Z,20.95
2022-08-07T14:30:09.807Z,20.96
2022-08-07T14:30:32.585Z,20.95
2022-08-07T14:31:43.060Z,20.97
2022-08-07T14:32:32.789Z,20.91
2022-08-07T14:33:44.897Z,20.88
2022-08-07T14:34:45.838Z,20.85
2022-08-07T14:35:48.638Z,20.95
2022-08-07T14:36:56.221Z,21.04
2022-08-07T14:38:05.464Z,20.87
2022-08-07T14:39:06.524Z,20.70
2022-08-07T14:40:26.574Z,20.71
2022-08-07T14:41:33.824Z,20.71
2022-08-07T14:43:55.692Z,20.88
2022-08-07T14:43:56.961Z,21.00
2022-08-07T14:44:48.994Z,20.94
2022-08-07T14:45:56.634Z,20.91
2022-08-07T14:47:08.962Z,21.00
2022-08-07T14:48:07.594Z,20.90
2022-08-07T14:49:57.702Z,20.73
2022-08-07T14:50:20.538Z,20.73
2022-08-07T14:51:27.839Z,20.77
2022-08-07T14:52:34.392Z,20.83
2022-08-07T14:54:03.528Z,20.63
2022-08-07T14:54:49.421Z,20.80
2022-08-07T14:56:00.970Z,20.78
2022-08-07T14:57:02.634Z,20.86
2022-08-07T14:58:06.996Z,20.76
2022-08-07T14:59:13.654Z,20.90
2022-08-07T15:01:42.506Z,20.83
2022-08-07T15:02:36.834Z,20.75
2022-08-07T15:03:52.260Z,20.77
2022-08-07T15:04:53.342Z,20.72
2022-08-07T15:06:57.223Z,20.73
2022-08-07T15:08:03.356Z,20.78
2022-08-07T15:11:50.799Z,20.67
2022-08-07T15:12:42.119Z,20.62
2022-08-07T15:14:09.998Z,20.62
2022-08-07T15:16:30.956Z,20.69
2022-08-07T15:17:27.001Z,20.62
2022-08-07T15:18:35.946Z,20.75
2022-08-07T15:20:30.799Z,20.56
2022-08-07T15:20:55.465Z,20.61
2022-08-07T15:22:04.237Z,20.72
2022-08-07T15:23:00.131Z,20.70
2022-08-07T15:25:13.104Z,20.76
2022-08-07T15:25:19.134Z,20.59
2022-08-07T15:26:23.415Z,20.63
2022-08-07T15:27:31.214Z,20.70
2022-08-07T15:28:41.531Z,20.67
2022-08-07T15:30:08.409Z,20.77
2022-08-07T15:31:04.936Z,20.61